Time;durP1;ratioP1;P1;durP2;ratioP2;P2;SDS_P1;SDS_P2;PMS_P1;PMS_P2;Temp;Humidity;BMP_temperature;BMP_pressure;BME280_temperature;BME280_humidity;BME280_pressure;Samples;Min_cycle;Max_cycle;Signal;HPM_P1;HPM_P2
2021/12/01 00:00:19;;;;;;;;;4.00;4.00;;;;;;;;5041883;28;45563;-77
2021/12/01 00:02:44;;;;;;;;;5.00;5.00;;;;;;;;5041076;28;46025;-77
2021/12/01 00:05:10;;;;;;;;;5.25;3.00;;;;;;;;5040501;28;46746;-77
2021/12/01 00:07:36;;;;;;;;;4.00;4.00;;;;;;;;5041062;28;45573;-75
2021/12/01 00:10:05;;;;;;;;;2.25;2.25;;;;;;;;5040566;28;45486;-75
2021/12/01 00:12:30;;;;;;;;;5.00;5.00;;;;;;;;5037534;28;45410;-76
2021/12/01 00:14:55;;;;;;;;;5.50;4.75;;;;;;;;5040772;28;45967;-80
2021/12/01 00:17:20;;;;;;;;;4.25;3.00;;;;;;;;5040702;28;45355;-77
2021/12/01 00:19:45;;;;;;;;;4.50;4.00;;;;;;;;5040874;28;45465;-77
2021/12/01 00:22:11;;;;;;;;;5.00;4.00;;;;;;;;5040722;28;45455;-77
2021/12/01 00:24:36;;;;;;;;;2.50;2.50;;;;;;;;5040399;28;46061;-77
2021/12/01 00:27:01;;;;;;;;;8.50;5.50;;;;;;;;5041275;28;45352;-76
2021/12/01 00:29:26;;;;;;;;;4.50;4.50;;;;;;;;5041183;28;45491;-75
2021/12/01 00:31:51;;;;;;;;;3.50;3.50;;;;;;;;5041179;28;45297;-77
2021/12/01 00:34:17;;;;;;;;;5.00;4.00;;;;;;;;5040784;28;47147;-75
2021/12/01 00:36:42;;;;;;;;;3.50;3.50;;;;;;;;5040698;28;45410;-78
2021/12/01 00:39:07;;;;;;;;;3.50;3.25;;;;;;;;5040894;28;45469;-75
2021/12/01 00:41:33;;;;;;;;;6.50;6.25;;;;;;;;5040507;28;45490;-73
2021/12/01 00:44:00;;;;;;;;;5.25;5.25;;;;;;;;5040044;28;46841;-74
2021/12/01 00:46:35;;;;;;;;;5.00;4.00;;;;;;;;5038235;28;45375;-73
2021/12/01 00:49:00;;;;;;;;;4.75;4.75;;;;;;;;5039600;28;45451;-70
2021/12/01 00:51:26;;;;;;;;;6.75;5.50;;;;;;;;5040722;28;45308;-74
2021/12/01 00:53:51;;;;;;;;;5.00;5.00;;;;;;;;5039359;28;46090;-73
2021/12/01 00:56:16;;;;;;;;;4.00;4.00;;;;;;;;5040038;28;45490;-76
2021/12/01 00:58:43;;;;;;;;;5.00;4.00;;;;;;;;5040292;28;45369;-73
2021/12/01 01:01:08;;;;;;;;;5.50;4.25;;;;;;;;5040286;28;45395;-73
2021/12/01 01:03:33;;;;;;;;;4.50;4.50;;;;;;;;5040715;28;45373;-72
2021/12/01 01:05:58;;;;;;;;;5.00;4.00;;;;;;;;5039888;28;45418;-73
2021/12/01 01:08:23;;;;;;;;;6.50;5.00;;;;;;;;5039307;28;46934;-73
2021/12/01 01:16:24;;;;;;;;;4.75;3.50;;;;;;;;5022256;28;45434;-74
2021/12/01 01:18:59;;;;;;;;;39.00;31.00;;;;;;;;5036439;28;45463;-72
2021/12/01 01:21:26;;;;;;;;;5.50;5.50;;;;;;;;5037146;28;45524;-71
2021/12/01 01:23:51;;;;;;;;;4.00;2.75;;;;;;;;5036257;28;47065;-74
2021/12/01 01:26:17;;;;;;;;;1.25;1.25;;;;;;;;5036252;28;45438;-74
2021/12/01 01:28:43;;;;;;;;;2.00;2.00;;;;;;;;5036753;28;45336;-75
2021/12/01 01:31:09;;;;;;;;;2.75;2.75;;;;;;;;5035324;28;45296;-74
2021/12/01 01:33:34;;;;;;;;;4.50;3.00;;;;;;;;5036597;28;46107;-74
2021/12/01 01:35:59;;;;;;;;;2.00;2.00;;;;;;;;5037219;28;45840;-75
2021/12/01 01:38:25;;;;;;;;;3.75;2.00;;;;;;;;5035030;28;45392;-74
2021/12/01 01:40:50;;;;;;;;;2.75;2.75;;;;;;;;5036539;28;46026;-74
2021/12/01 01:43:15;;;;;;;;;1.00;1.00;;;;;;;;5036208;28;46102;-75
2021/12/01 01:45:40;;;;;;;;;5.50;3.75;;;;;;;;5036601;28;45300;-74
2021/12/01 01:48:10;;;;;;;;;0.75;0.00;;;;;;;;5036686;28;45307;-74
2021/12/01 01:50:37;;;;;;;;;1.50;1.50;;;;;;;;5035984;28;45233;-75
2021/12/01 01:53:07;;;;;;;;;3.00;1.00;;;;;;;;5036000;28;46326;-73
2021/12/01 01:55:32;;;;;;;;;3.00;3.00;;;;;;;;5036128;28;45378;-74
2021/12/01 01:57:58;;;;;;;;;3.00;3.00;;;;;;;;5036282;28;45512;-74
2021/12/01 02:00:23;;;;;;;;;4.25;4.25;;;;;;;;5036907;28;45406;-74
2021/12/01 02:02:49;;;;;;;;;3.00;2.00;;;;;;;;5036529;28;45951;-74
2021/12/01 02:05:14;;;;;;;;;2.00;2.00;;;;;;;;5035576;28;45566;-74
2021/12/01 02:07:40;;;;;;;;;2.75;2.00;;;;;;;;5036206;28;45517;-74
2021/12/01 02:10:05;;;;;;;;;2.75;2.75;;;;;;;;5035977;28;45405;-73
2021/12/01 02:12:31;;;;;;;;;1.75;1.50;;;;;;;;5036472;28;45476;-73
2021/12/01 02:14:56;;;;;;;;;3.50;2.75;;;;;;;;5035894;28;45467;-74
2021/12/01 02:17:22;;;;;;;;;3.25;3.25;;;;;;;;5035914;28;45279;-73
2021/12/01 02:19:51;;;;;;;;;2.75;1.00;;;;;;;;5036175;28;45232;-73
2021/12/01 02:22:16;;;;;;;;;3.25;3.25;;;;;;;;5033560;28;48522;-73
2021/12/01 02:24:44;;;;;;;;;1.50;1.50;;;;;;;;5036429;28;45311;-75
2021/12/01 02:27:11;;;;;;;;;4.25;2.50;;;;;;;;5037178;28;45406;-74
2021/12/01 02:29:36;;;;;;;;;3.75;3.75;;;;;;;;5035935;28;45423;-72
2021/12/01 02:32:02;;;;;;;;;3.00;3.00;;;;;;;;5035800;28;45973;-74
2021/12/01 02:34:31;;;;;;;;;1.50;1.00;;;;;;;;5035281;28;45403;-73
2021/12/01 02:36:57;;;;;;;;;2.25;2.25;;;;;;;;5035887;28;45374;-73
2021/12/01 02:39:23;;;;;;;;;2.00;2.00;;;;;;;;5036250;28;45542;-73
2021/12/01 02:41:52;;;;;;;;;3.75;3.00;;;;;;;;5035273;28;46225;-75
2021/12/01 02:44:18;;;;;;;;;3.75;3.00;;;;;;;;5035497;28;45380;-74
2021/12/01 02:46:44;;;;;;;;;3.00;3.00;;;;;;;;5035502;28;45460;-74
2021/12/01 02:49:09;;;;;;;;;3.25;3.00;;;;;;;;5034714;28;45490;-74
2021/12/01 02:51:36;;;;;;;;;5.50;2.75;;;;;;;;5035759;28;47176;-74
2021/12/01 02:54:02;;;;;;;;;2.00;2.00;;;;;;;;5035413;28;45379;-74
2021/12/01 02:56:28;;;;;;;;;4.00;3.00;;;;;;;;5035349;28;45303;-73
2021/12/01 02:58:54;;;;;;;;;5.50;4.25;;;;;;;;5035466;28;45643;-74
2021/12/01 03:01:21;;;;;;;;;4.00;3.00;;;;;;;;5034912;28;45505;-74
2021/12/01 03:03:47;;;;;;;;;3.00;3.00;;;;;;;;5035406;28;45584;-73
2021/12/01 03:06:12;;;;;;;;;4.50;4.00;;;;;;;;5035982;28;45391;-74
2021/12/01 03:08:39;;;;;;;;;5.50;5.50;;;;;;;;5035018;28;45249;-74
2021/12/01 03:11:05;;;;;;;;;4.00;2.75;;;;;;;;5034782;28;46249;-74
2021/12/01 03:13:30;;;;;;;;;2.00;2.00;;;;;;;;5034713;28;45353;-74
2021/12/01 03:15:56;;;;;;;;;3.75;2.50;;;;;;;;5035201;28;45466;-74
2021/12/01 03:18:21;;;;;;;;;4.25;4.00;;;;;;;;5035400;28;45511;-74
2021/12/01 03:20:47;;;;;;;;;3.50;3.00;;;;;;;;5033339;28;48155;-74
2021/12/01 03:23:13;;;;;;;;;1.50;1.50;;;;;;;;5034738;28;45458;-73
2021/12/01 03:25:38;;;;;;;;;4.75;3.75;;;;;;;;5034888;28;45397;-73
2021/12/01 03:28:05;;;;;;;;;3.00;2.00;;;;;;;;5034830;28;45370;-73
2021/12/01 03:30:37;;;;;;;;;2.00;2.00;;;;;;;;5031320;28;47224;-73
2021/12/01 03:33:03;;;;;;;;;1.50;1.50;;;;;;;;5033807;28;45477;-73
2021/12/01 03:35:29;;;;;;;;;1.25;0.00;;;;;;;;5034529;28;45535;-73
2021/12/01 03:37:54;;;;;;;;;1.75;1.75;;;;;;;;5034701;28;45710;-74
2021/12/01 03:40:19;;;;;;;;;3.00;3.00;;;;;;;;5034800;28;45495;-74
2021/12/01 03:42:44;;;;;;;;;1.25;1.25;;;;;;;;5035125;28;45599;-74
2021/12/01 03:45:10;;;;;;;;;1.50;1.50;;;;;;;;5035205;28;45309;-73
2021/12/01 03:47:36;;;;;;;;;1.75;1.50;;;;;;;;5033994;28;45558;-74
2021/12/01 03:50:01;;;;;;;;;1.50;1.50;;;;;;;;5033797;28;46917;-72
2021/12/01 03:52:27;;;;;;;;;1.25;1.25;;;;;;;;5034094;28;45525;-73
2021/12/01 03:54:52;;;;;;;;;1.00;1.00;;;;;;;;5034229;28;45476;-72
2021/12/01 03:57:18;;;;;;;;;3.75;2.00;;;;;;;;5034795;28;45346;-72
2021/12/01 03:59:43;;;;;;;;;2.00;2.00;;;;;;;;5033981;28;45410;-72
2021/12/01 04:02:09;;;;;;;;;1.75;1.50;;;;;;;;5033706;28;45534;-72
2021/12/01 04:04:34;;;;;;;;;2.00;2.00;;;;;;;;5034583;28;45703;-71
2021/12/01 04:06:59;;;;;;;;;2.00;2.00;;;;;;;;5034471;28;45637;-73
2021/12/01 04:09:25;;;;;;;;;3.50;2.25;;;;;;;;5033605;28;47076;-73
2021/12/01 04:11:50;;;;;;;;;2.00;2.00;;;;;;;;5034072;28;45366;-71
2021/12/01 04:14:16;;;;;;;;;2.00;2.00;;;;;;;;5034017;28;45549;-74
2021/12/01 04:16:41;;;;;;;;;3.00;1.00;;;;;;;;5033910;28;45390;-73
2021/12/01 04:19:06;;;;;;;;;4.00;2.50;;;;;;;;5033771;28;46470;-71
2021/12/01 04:21:32;;;;;;;;;3.50;2.00;;;;;;;;5034559;28;45354;-74
2021/12/01 04:23:57;;;;;;;;;5.00;4.50;;;;;;;;5033882;28;45867;-73
2021/12/01 04:26:27;;;;;;;;;2.00;2.00;;;;;;;;5033824;28;45409;-73
2021/12/01 04:28:53;;;;;;;;;3.25;2.00;;;;;;;;5033299;28;46337;-72
2021/12/01 04:31:19;;;;;;;;;0.50;0.50;;;;;;;;5033379;28;45437;-73
2021/12/01 04:33:44;;;;;;;;;3.00;3.00;;;;;;;;5034021;28;45415;-73
2021/12/01 04:36:10;;;;;;;;;2.00;2.00;;;;;;;;5034525;28;45264;-72
2021/12/01 04:38:36;;;;;;;;;2.25;2.25;;;;;;;;5033591;28;45956;-73
2021/12/01 04:41:02;;;;;;;;;2.00;2.00;;;;;;;;5033482;28;45416;-72
2021/12/01 04:43:27;;;;;;;;;2.75;2.25;;;;;;;;5033690;28;45489;-71
2021/12/01 04:45:58;;;;;;;;;3.00;1.75;;;;;;;;5036177;28;45307;-73
2021/12/01 04:48:23;;;;;;;;;4.00;3.75;;;;;;;;5037028;28;47066;-73
2021/12/01 04:50:49;;;;;;;;;2.00;2.00;;;;;;;;5036672;28;45249;-73
2021/12/01 04:53:14;;;;;;;;;4.00;3.00;;;;;;;;5036947;28;45465;-73
2021/12/01 04:55:39;;;;;;;;;3.00;3.00;;;;;;;;5036816;28;45494;-74
2021/12/01 04:58:04;;;;;;;;;0.00;0.00;;;;;;;;5035239;28;48179;-73
2021/12/01 05:00:34;;;;;;;;;2.50;1.50;;;;;;;;5037318;28;45787;-74
2021/12/01 05:02:59;;;;;;;;;4.00;3.00;;;;;;;;5036039;28;45546;-73
2021/12/01 05:05:24;;;;;;;;;3.00;3.00;;;;;;;;5036785;28;45633;-73
2021/12/01 05:07:51;;;;;;;;;3.00;3.00;;;;;;;;5036247;28;46427;-73
2021/12/01 05:10:17;;;;;;;;;3.00;2.00;;;;;;;;5036370;28;45415;-74
2021/12/01 05:12:42;;;;;;;;;1.25;1.00;;;;;;;;5036713;28;45482;-73
2021/12/01 05:15:07;;;;;;;;;1.00;1.00;;;;;;;;5036568;28;45416;-72
2021/12/01 05:17:32;;;;;;;;;1.00;1.00;;;;;;;;5036120;28;46081;-72
2021/12/01 05:19:58;;;;;;;;;1.00;1.00;;;;;;;;5036187;28;45394;-72
2021/12/01 05:22:23;;;;;;;;;1.00;1.00;;;;;;;;5036291;28;45345;-73
2021/12/01 05:24:48;;;;;;;;;0.00;0.00;;;;;;;;5034821;28;45376;-71
2021/12/01 05:27:13;;;;;;;;;2.00;1.00;;;;;;;;5036891;28;45555;-73
2021/12/01 05:29:39;;;;;;;;;0.25;0.25;;;;;;;;5035419;28;45433;-73
2021/12/01 05:32:05;;;;;;;;;0.00;0.00;;;;;;;;5035908;28;45264;-73
2021/12/01 05:34:30;;;;;;;;;0.00;0.00;;;;;;;;5035758;28;45410;-73
2021/12/01 05:36:59;;;;;;;;;0.75;0.75;;;;;;;;5035765;28;46098;-73
2021/12/01 05:39:25;;;;;;;;;0.00;0.00;;;;;;;;5036506;28;45293;-73
2021/12/01 05:41:50;;;;;;;;;2.00;1.00;;;;;;;;5035924;28;45419;-73
2021/12/01 05:44:15;;;;;;;;;0.00;0.00;;;;;;;;5034859;28;45484;-73
2021/12/01 05:46:41;;;;;;;;;0.00;0.00;;;;;;;;5035096;28;47111;-73
2021/12/01 05:49:06;;;;;;;;;2.00;0.00;;;;;;;;5035268;28;45338;-72
2021/12/01 05:51:31;;;;;;;;;0.25;0.25;;;;;;;;5036623;28;45232;-73
2021/12/01 05:53:56;;;;;;;;;2.00;1.00;;;;;;;;5035455;28;45505;-72
2021/12/01 05:56:21;;;;;;;;;1.25;0.00;;;;;;;;5034864;28;46616;-72
2021/12/01 05:58:47;;;;;;;;;0.00;0.00;;;;;;;;5035034;28;45342;-73
2021/12/01 06:01:12;;;;;;;;;1.25;1.25;;;;;;;;5035423;28;45525;-73
2021/12/01 06:03:39;;;;;;;;;0.00;0.00;;;;;;;;5036054;28;45393;-72
2021/12/01 06:06:05;;;;;;;;;0.00;0.00;;;;;;;;5036019;28;46087;-73
2021/12/01 06:08:30;;;;;;;;;0.00;0.00;;;;;;;;5035825;28;45538;-74
2021/12/01 06:10:55;;;;;;;;;0.00;0.00;;;;;;;;5035985;28;45257;-73
2021/12/01 06:13:21;;;;;;;;;1.00;1.00;;;;;;;;5034648;28;45289;-73
2021/12/01 06:15:49;;;;;;;;;1.00;1.00;;;;;;;;5035307;28;45462;-73
2021/12/01 06:18:15;;;;;;;;;1.00;1.00;;;;;;;;5033971;28;45508;-73
2021/12/01 06:20:40;;;;;;;;;0.00;0.00;;;;;;;;5035016;28;45452;-72
2021/12/01 06:23:05;;;;;;;;;0.00;0.00;;;;;;;;5035012;28;45420;-76
2021/12/01 06:25:31;;;;;;;;;0.50;0.50;;;;;;;;5035173;28;46317;-78
2021/12/01 06:27:56;;;;;;;;;1.00;1.00;;;;;;;;5035460;28;45454;-82
2021/12/01 06:30:22;;;;;;;;;1.00;1.00;;;;;;;;5035596;28;46124;-74
2021/12/01 06:32:48;;;;;;;;;0.75;0.75;;;;;;;;5034900;28;45515;-73
2021/12/01 06:35:13;;;;;;;;;0.00;0.00;;;;;;;;5034116;28;46997;-74
2021/12/01 06:37:39;;;;;;;;;0.00;0.00;;;;;;;;5034540;28;47551;-74
2021/12/01 06:40:05;;;;;;;;;0.00;0.00;;;;;;;;5034576;28;45331;-72
2021/12/01 06:42:30;;;;;;;;;2.25;0.50;;;;;;;;5030707;28;45595;-73
2021/12/01 06:44:55;;;;;;;;;0.00;0.00;;;;;;;;5033935;28;46728;-73
2021/12/01 06:47:20;;;;;;;;;0.50;0.50;;;;;;;;5033672;28;45473;-73
2021/12/01 06:49:47;;;;;;;;;1.00;1.00;;;;;;;;5034120;28;45302;-74
2021/12/01 06:52:13;;;;;;;;;0.50;0.50;;;;;;;;5034393;28;45363;-72
2021/12/01 06:54:38;;;;;;;;;0.00;0.00;;;;;;;;5033887;28;46309;-74
2021/12/01 06:57:04;;;;;;;;;0.50;0.50;;;;;;;;5034232;28;45285;-73
2021/12/01 06:59:29;;;;;;;;;1.00;1.00;;;;;;;;5033860;28;45253;-75
2021/12/01 07:01:54;;;;;;;;;0.00;0.00;;;;;;;;5036157;28;45458;-74
2021/12/01 07:04:19;;;;;;;;;0.00;0.00;;;;;;;;5033576;28;47379;-73
2021/12/01 07:06:45;;;;;;;;;0.25;0.00;;;;;;;;5033566;28;45330;-74
2021/12/01 07:09:17;;;;;;;;;1.75;1.00;;;;;;;;5034545;28;45467;-73
2021/12/01 07:11:42;;;;;;;;;2.00;1.00;;;;;;;;5033657;28;45471;-74
2021/12/01 07:14:07;;;;;;;;;0.00;0.00;;;;;;;;5032484;28;46029;-75
2021/12/01 07:16:33;;;;;;;;;0.00;0.00;;;;;;;;5033502;28;45544;-75
2021/12/01 07:18:58;;;;;;;;;1.25;0.00;;;;;;;;5034248;28;45363;-73
2021/12/01 07:21:23;;;;;;;;;1.00;1.00;;;;;;;;5034040;28;45558;-74
2021/12/01 07:23:48;;;;;;;;;2.00;0.00;;;;;;;;5033087;28;45460;-75
2021/12/01 07:26:14;;;;;;;;;2.00;2.00;;;;;;;;5031697;28;46256;-74
2021/12/01 07:28:39;;;;;;;;;5.00;1.50;;;;;;;;5033709;28;45371;-74
2021/12/01 07:31:05;;;;;;;;;0.00;0.00;;;;;;;;5033946;28;45465;-74
2021/12/01 07:33:30;;;;;;;;;1.50;1.00;;;;;;;;5034483;28;47845;-75
2021/12/01 07:35:55;;;;;;;;;0.75;0.75;;;;;;;;5031936;28;45486;-74
2021/12/01 07:38:21;;;;;;;;;0.00;0.00;;;;;;;;5033662;28;45497;-75
2021/12/01 07:40:46;;;;;;;;;0.50;0.00;;;;;;;;5033317;28;45521;-75
2021/12/01 07:43:11;;;;;;;;;5.75;3.75;;;;;;;;5032327;28;47056;-74
2021/12/01 07:45:36;;;;;;;;;6.00;3.75;;;;;;;;5033288;28;45227;-74
2021/12/01 07:48:02;;;;;;;;;0.50;0.50;;;;;;;;5033741;28;45444;-73
2021/12/01 07:50:27;;;;;;;;;4.75;4.25;;;;;;;;5032985;28;45198;-75
2021/12/01 07:52:52;;;;;;;;;4.25;2.00;;;;;;;;5032347;28;46397;-76
2021/12/01 07:55:18;;;;;;;;;10.00;2.00;;;;;;;;5033210;28;45341;-74
2021/12/01 07:57:45;;;;;;;;;1.00;1.00;;;;;;;;5033109;28;45244;-75
2021/12/01 08:00:11;;;;;;;;;2.25;2.00;;;;;;;;5033483;28;45306;-75
2021/12/01 08:02:36;;;;;;;;;5.75;4.25;;;;;;;;5032798;28;47845;-73
2021/12/01 08:05:02;;;;;;;;;5.00;4.00;;;;;;;;5032777;28;45491;-74
2021/12/01 08:07:28;;;;;;;;;1.00;1.00;;;;;;;;5033116;28;45390;-74
2021/12/01 08:09:53;;;;;;;;;6.50;3.75;;;;;;;;5033000;28;45598;-75
2021/12/01 08:12:18;;;;;;;;;8.50;5.75;;;;;;;;5033306;28;47117;-74
2021/12/01 08:14:43;;;;;;;;;0.00;0.00;;;;;;;;5032655;28;45286;-74
2021/12/01 08:17:09;;;;;;;;;2.00;2.00;;;;;;;;5032374;28;45352;-74
2021/12/01 08:19:34;;;;;;;;;2.25;1.25;;;;;;;;5035170;28;45228;-75
2021/12/01 08:21:59;;;;;;;;;0.00;0.00;;;;;;;;5035182;28;46070;-74
2021/12/01 08:24:25;;;;;;;;;0.00;0.00;;;;;;;;5036226;28;45296;-74
2021/12/01 08:26:50;;;;;;;;;0.00;0.00;;;;;;;;5035296;28;45680;-75
2021/12/01 08:29:15;;;;;;;;;0.00;0.00;;;;;;;;5035591;28;45577;-74
2021/12/01 08:31:41;;;;;;;;;0.00;0.00;;;;;;;;5035818;28;45536;-75
2021/12/01 08:34:06;;;;;;;;;0.00;0.00;;;;;;;;5036064;28;45297;-74
2021/12/01 08:36:32;;;;;;;;;1.00;1.00;;;;;;;;5036755;28;45501;-75
2021/12/01 08:38:57;;;;;;;;;2.25;1.00;;;;;;;;5036113;28;45189;-75
2021/12/01 08:41:22;;;;;;;;;0.00;0.00;;;;;;;;5035613;28;45393;-75
2021/12/01 08:43:48;;;;;;;;;0.25;0.25;;;;;;;;5035793;28;45597;-75
2021/12/01 08:46:13;;;;;;;;;0.50;0.50;;;;;;;;5036244;28;45670;-72
2021/12/01 08:48:38;;;;;;;;;0.00;0.00;;;;;;;;5035993;28;45280;-75
2021/12/01 08:51:04;;;;;;;;;1.00;1.00;;;;;;;;5035778;28;46117;-73
2021/12/01 08:53:31;;;;;;;;;2.75;1.00;;;;;;;;5035411;28;45490;-74
2021/12/01 08:55:57;;;;;;;;;0.50;0.00;;;;;;;;5034598;28;47626;-74
2021/12/01 08:58:23;;;;;;;;;1.00;1.00;;;;;;;;5035875;28;45422;-75
2021/12/01 09:00:48;;;;;;;;;0.25;0.25;;;;;;;;5035577;28;46070;-74
2021/12/01 09:03:14;;;;;;;;;1.00;1.00;;;;;;;;5036248;28;45422;-75
2021/12/01 09:05:40;;;;;;;;;0.00;0.00;;;;;;;;5034952;28;45324;-74
2021/12/01 09:08:05;;;;;;;;;0.00;0.00;;;;;;;;5034662;28;45506;-75
2021/12/01 09:10:31;;;;;;;;;1.00;1.00;;;;;;;;5035231;28;46058;-74
2021/12/01 09:12:57;;;;;;;;;0.50;0.50;;;;;;;;5035533;28;45233;-74
2021/12/01 09:15:22;;;;;;;;;0.00;0.00;;;;;;;;5036643;28;45699;-74
2021/12/01 09:17:47;;;;;;;;;1.00;1.00;;;;;;;;5034928;28;46081;-75
2021/12/01 09:20:12;;;;;;;;;0.00;0.00;;;;;;;;5034715;28;46205;-73
2021/12/01 09:22:38;;;;;;;;;0.50;0.00;;;;;;;;5035544;28;45451;-75
2021/12/01 09:25:03;;;;;;;;;0.75;0.25;;;;;;;;5035577;28;45665;-75
2021/12/01 09:27:29;;;;;;;;;0.00;0.00;;;;;;;;5036338;28;45380;-73
2021/12/01 09:29:54;;;;;;;;;0.00;0.00;;;;;;;;5034184;28;46222;-73
2021/12/01 09:32:19;;;;;;;;;1.00;0.00;;;;;;;;5035394;28;45412;-73
2021/12/01 09:34:45;;;;;;;;;1.00;0.00;;;;;;;;5035327;28;45522;-73
2021/12/01 09:37:10;;;;;;;;;1.00;0.75;;;;;;;;5035407;28;45407;-75
2021/12/01 09:39:36;;;;;;;;;0.00;0.00;;;;;;;;5035985;28;45375;-73
2021/12/01 09:42:02;;;;;;;;;1.75;0.00;;;;;;;;5035948;28;45408;-75
2021/12/01 09:44:27;;;;;;;;;0.00;0.00;;;;;;;;5035127;28;45501;-74
2021/12/01 09:46:52;;;;;;;;;0.25;0.25;;;;;;;;5034789;28;45496;-74
2021/12/01 09:49:18;;;;;;;;;1.50;0.75;;;;;;;;5034321;28;46162;-74
2021/12/01 09:51:43;;;;;;;;;0.00;0.00;;;;;;;;5035165;28;45397;-75
2021/12/01 09:54:09;;;;;;;;;0.00;0.00;;;;;;;;5035637;28;45483;-73
2021/12/01 09:56:34;;;;;;;;;0.50;0.50;;;;;;;;5035376;28;45497;-74
2021/12/01 09:58:59;;;;;;;;;0.75;0.00;;;;;;;;5033153;28;48407;-73
2021/12/01 10:01:25;;;;;;;;;0.75;0.75;;;;;;;;5034549;28;45473;-74
2021/12/01 10:03:51;;;;;;;;;0.00;0.00;;;;;;;;5034608;28;45343;-74
2021/12/01 10:06:18;;;;;;;;;0.00;0.00;;;;;;;;5035967;28;45274;-74
2021/12/01 10:08:50;;;;;;;;;0.00;0.00;;;;;;;;5034996;28;46665;-74
2021/12/01 10:11:27;;;;;;;;;0.00;0.00;;;;;;;;5033923;28;46300;-75
2021/12/01 10:13:57;;;;;;;;;0.00;0.00;;;;;;;;5035697;28;45326;-75
2021/12/01 10:16:23;;;;;;;;;0.50;0.00;;;;;;;;5035180;28;45524;-74
2021/12/01 10:18:50;;;;;;;;;2.00;0.25;;;;;;;;5034255;28;46199;-73
2021/12/01 10:21:15;;;;;;;;;1.00;0.00;;;;;;;;5034149;28;45316;-74
2021/12/01 10:23:49;;;;;;;;;1.00;1.00;;;;;;;;5035977;28;45359;-74
2021/12/01 10:26:19;;;;;;;;;3.25;3.25;;;;;;;;5035551;28;45369;-74
2021/12/01 10:28:46;;;;;;;;;1.00;1.00;;;;;;;;5034121;28;48447;-73
2021/12/01 10:31:12;;;;;;;;;0.00;0.00;;;;;;;;5034584;28;45552;-75
2021/12/01 10:33:38;;;;;;;;;1.00;0.00;;;;;;;;5034373;28;45446;-74
2021/12/01 10:36:04;;;;;;;;;2.00;0.00;;;;;;;;5033904;28;45514;-74
2021/12/01 10:38:35;;;;;;;;;1.00;1.00;;;;;;;;5033647;28;45445;-75
2021/12/01 10:41:18;;;;;;;;;1.25;0.00;;;;;;;;5033768;28;45404;-74
2021/12/01 10:43:47;;;;;;;;;1.25;0.25;;;;;;;;5033454;28;45310;-74
2021/12/01 10:46:15;;;;;;;;;0.25;0.25;;;;;;;;5034231;28;45441;-74
2021/12/01 10:48:41;;;;;;;;;0.50;0.50;;;;;;;;5032957;28;46445;-74
2021/12/01 10:51:08;;;;;;;;;0.00;0.00;;;;;;;;5033742;28;45219;-74
2021/12/01 10:53:34;;;;;;;;;1.00;1.00;;;;;;;;5034120;28;45589;-74
2021/12/01 10:56:00;;;;;;;;;2.00;2.00;;;;;;;;5033749;28;45343;-74
2021/12/01 10:58:33;;;;;;;;;1.50;1.00;;;;;;;;5033772;28;46190;-74
2021/12/01 11:01:01;;;;;;;;;1.75;1.75;;;;;;;;5033461;28;45436;-73
2021/12/01 11:03:29;;;;;;;;;5.75;4.25;;;;;;;;5033885;28;45296;-74
2021/12/01 11:05:56;;;;;;;;;1.00;1.00;;;;;;;;5033338;28;45468;-75
2021/12/01 11:08:24;;;;;;;;;0.25;0.00;;;;;;;;5032949;28;46957;-74
2021/12/01 11:10:52;;;;;;;;;1.50;1.00;;;;;;;;5033048;28;45494;-73
2021/12/01 11:13:18;;;;;;;;;1.25;1.25;;;;;;;;5033293;28;45509;-74
2021/12/01 11:15:53;;;;;;;;;4.00;1.00;;;;;;;;5032270;28;45483;-74
2021/12/01 11:18:20;;;;;;;;;5.00;2.75;;;;;;;;5032157;28;47022;-74
2021/12/01 11:20:46;;;;;;;;;3.75;1.75;;;;;;;;5032548;28;45505;-74
2021/12/01 11:23:14;;;;;;;;;2.00;2.00;;;;;;;;5033230;28;45259;-75
2021/12/01 11:25:40;;;;;;;;;1.25;1.25;;;;;;;;5033194;28;45576;-74
2021/12/01 11:28:08;;;;;;;;;2.00;2.00;;;;;;;;5033499;28;46293;-74
2021/12/01 11:30:33;;;;;;;;;0.50;0.25;;;;;;;;5029485;28;45435;-75
2021/12/01 11:32:59;;;;;;;;;4.00;3.75;;;;;;;;5032779;28;45342;-74
2021/12/01 11:35:24;;;;;;;;;2.00;2.00;;;;;;;;5032957;28;45478;-73
2021/12/01 11:37:56;;;;;;;;;3.67;3.00;;;;;;;;5032832;28;45501;-75
2021/12/01 11:40:28;;;;;;;;;1.00;1.00;;;;;;;;5032756;28;45537;-74
2021/12/01 11:42:54;;;;;;;;;1.00;1.00;;;;;;;;5032588;28;45521;-74
2021/12/01 11:45:19;;;;;;;;;0.67;0.67;;;;;;;;5030982;28;45529;-74
2021/12/01 11:47:48;;;;;;;;;0.33;0.33;;;;;;;;5032110;28;46061;-74
2021/12/01 11:50:33;;;;;;;;;1.00;1.00;;;;;;;;5032899;28;45462;-74
2021/12/01 11:53:17;;;;;;;;;1.00;1.00;;;;;;;;5032933;28;45384;-73
2021/12/01 11:55:49;;;;;;;;;0.00;0.00;;;;;;;;5033353;28;45516;-74
2021/12/01 11:58:33;;;;;;;;;4.00;0.67;;;;;;;;5032984;28;46117;-74
2021/12/01 12:00:59;;;;;;;;;1.00;1.00;;;;;;;;5032672;28;45951;-75
2021/12/01 12:03:25;;;;;;;;;0.00;0.00;;;;;;;;5034963;28;45378;-75
2021/12/01 12:06:09;;;;;;;;;2.67;2.00;;;;;;;;5036318;28;45382;-74
2021/12/01 12:08:54;;;;;;;;;2.00;2.00;;;;;;;;5036408;28;46223;-76
2021/12/01 12:11:35;;;;;;;;;2.67;2.00;;;;;;;;5032590;28;45471;-73
2021/12/01 12:14:02;;;;;;;;;2.33;1.00;;;;;;;;5032174;28;45501;-74
2021/12/01 12:16:27;;;;;;;;;1.33;0.00;;;;;;;;5032512;28;45478;-74
2021/12/01 12:18:53;;;;;;;;;2.33;1.00;;;;;;;;5032965;28;45306;-74
2021/12/01 12:21:38;;;;;;;;;2.33;1.33;;;;;;;;5032992;28;45387;-74
2021/12/01 12:24:06;;;;;;;;;1.33;0.33;;;;;;;;5032882;28;45572;-75
2021/12/01 12:26:32;;;;;;;;;3.00;1.00;;;;;;;;5032402;28;45413;-75
2021/12/01 12:29:15;;;;;;;;;1.33;1.33;;;;;;;;5032083;28;46269;-74
2021/12/01 12:31:42;;;;;;;;;0.67;0.67;;;;;;;;5032361;28;45471;-75
2021/12/01 12:34:13;;;;;;;;;1.33;1.00;;;;;;;;5032063;28;45577;-75
2021/12/01 12:36:41;;;;;;;;;1.00;1.00;;;;;;;;5033093;28;45462;-74
2021/12/01 12:39:17;;;;;;;;;1.00;1.00;;;;;;;;5032592;28;46002;-74
2021/12/01 12:41:54;;;;;;;;;1.00;1.00;;;;;;;;5032147;28;45480;-73
2021/12/01 12:44:28;;;;;;;;;1.00;1.00;;;;;;;;5031843;28;45420;-72
2021/12/01 12:47:14;;;;;;;;;1.67;1.67;;;;;;;;5033128;28;45470;-74
2021/12/01 12:49:44;;;;;;;;;1.33;1.33;;;;;;;;5031521;28;47146;-74
2021/12/01 12:52:27;;;;;;;;;1.00;1.00;;;;;;;;5032624;28;45621;-74
2021/12/01 12:54:53;;;;;;;;;1.67;1.67;;;;;;;;5032650;28;45425;-75
2021/12/01 12:57:19;;;;;;;;;1.00;1.00;;;;;;;;5033134;28;45537;-74
2021/12/01 12:59:45;;;;;;;;;2.00;2.00;;;;;;;;5031967;28;46404;-73
2021/12/01 13:02:10;;;;;;;;;1.75;1.75;;;;;;;;5032028;28;45545;-73
2021/12/01 13:04:47;;;;;;;;;3.25;3.25;;;;;;;;5032128;28;45596;-73
2021/12/01 13:07:31;;;;;;;;;1.00;1.00;;;;;;;;5021015;28;45477;-74
2021/12/01 13:10:06;;;;;;;;;2.25;2.25;;;;;;;;5034902;28;47113;-75
2021/12/01 13:12:42;;;;;;;;;4.00;3.00;;;;;;;;5035592;28;45480;-72
2021/12/01 13:15:08;;;;;;;;;3.00;3.00;;;;;;;;5034877;28;45515;-72
2021/12/01 13:17:33;;;;;;;;;2.00;2.00;;;;;;;;5035559;28;45540;-72
2021/12/01 13:20:00;;;;;;;;;2.00;2.00;;;;;;;;5034852;28;45517;-74
2021/12/01 13:22:25;;;;;;;;;2.50;2.00;;;;;;;;5034983;28;45480;-72
2021/12/01 13:24:50;;;;;;;;;0.00;0.00;;;;;;;;5035234;28;45331;-73
2021/12/01 13:27:16;;;;;;;;;1.50;1.50;;;;;;;;5031602;28;45223;-74
2021/12/01 13:29:41;;;;;;;;;3.50;1.75;;;;;;;;5034828;28;46354;-74
2021/12/01 13:32:07;;;;;;;;;3.00;3.00;;;;;;;;5034795;28;45468;-74
2021/12/01 13:34:36;;;;;;;;;4.75;3.00;;;;;;;;5035114;28;45521;-74
2021/12/01 13:37:04;;;;;;;;;5.75;1.75;;;;;;;;5035253;28;45405;-72
2021/12/01 13:39:31;;;;;;;;;3.00;1.00;;;;;;;;5035558;28;45408;-71
2021/12/01 13:42:02;;;;;;;;;1.75;1.75;;;;;;;;5034284;28;45482;-74
2021/12/01 13:44:37;;;;;;;;;4.25;4.25;;;;;;;;5034633;28;45416;-76
2021/12/01 13:47:12;;;;;;;;;1.75;1.75;;;;;;;;5034893;28;45457;-75
2021/12/01 13:49:37;;;;;;;;;2.25;0.50;;;;;;;;5034386;28;47286;-73
2021/12/01 13:52:03;;;;;;;;;1.00;1.00;;;;;;;;5033905;28;45563;-74
2021/12/01 13:54:28;;;;;;;;;1.00;1.00;;;;;;;;5035478;28;45354;-73
2021/12/01 13:57:10;;;;;;;;;0.50;0.50;;;;;;;;5033133;28;45374;-74
2021/12/01 13:59:38;;;;;;;;;3.00;3.00;;;;;;;;5035568;28;45299;-74
2021/12/01 14:02:04;;;;;;;;;1.00;1.00;;;;;;;;5034734;28;45549;-74
2021/12/01 14:04:29;;;;;;;;;0.25;0.00;;;;;;;;5034859;28;45370;-74
2021/12/01 14:06:56;;;;;;;;;4.00;1.00;;;;;;;;5035166;28;45285;-74
2021/12/01 14:09:22;;;;;;;;;0.25;0.00;;;;;;;;5035263;28;46986;-75
2021/12/01 14:11:51;;;;;;;;;0.00;0.00;;;;;;;;5034536;28;45322;-74
2021/12/01 14:14:21;;;;;;;;;0.75;0.75;;;;;;;;5033271;28;45523;-74
2021/12/01 14:16:48;;;;;;;;;2.25;1.75;;;;;;;;5034578;28;45529;-74
2021/12/01 14:19:13;;;;;;;;;5.00;3.50;;;;;;;;5034411;28;45435;-74
2021/12/01 14:21:39;;;;;;;;;1.00;1.00;;;;;;;;5033590;28;45238;-75
2021/12/01 14:24:12;;;;;;;;;1.00;1.00;;;;;;;;5033328;28;45476;-74
2021/12/01 14:26:58;;;;;;;;;1.50;1.00;;;;;;;;5034103;28;45613;-74
2021/12/01 14:29:23;;;;;;;;;1.00;1.00;;;;;;;;5034033;28;46310;-75
2021/12/01 14:31:56;;;;;;;;;0.00;0.00;;;;;;;;5033984;28;45338;-75
2021/12/01 14:34:23;;;;;;;;;0.00;0.00;;;;;;;;5034515;28;45502;-74
2021/12/01 14:36:51;;;;;;;;;0.25;0.00;;;;;;;;5034542;28;45275;-74
2021/12/01 14:39:17;;;;;;;;;1.00;1.00;;;;;;;;5030780;28;47822;-75
2021/12/01 14:41:44;;;;;;;;;3.75;1.25;;;;;;;;5034126;28;45345;-74
2021/12/01 14:44:09;;;;;;;;;2.25;1.00;;;;;;;;5034290;28;45324;-75
2021/12/01 14:46:35;;;;;;;;;1.00;1.00;;;;;;;;5034370;28;45334;-75